createdAt,value
2023-03-02T00:50:41.357Z,535.00
2023-03-02T00:51:41.277Z,535.00
2023-03-02T00:52:41.277Z,532.00
2023-03-02T00:53:41.315Z,530.00
2023-03-02T00:54:41.337Z,529.00
2023-03-02T00:55:41.356Z,530.00
2023-03-02T00:56:41.366Z,528.00
2023-03-02T00:57:41.400Z,527.00
2023-03-02T00:58:41.406Z,529.00
2023-03-02T00:59:41.455Z,532.00
2023-03-02T01:00:41.462Z,534.00
2023-03-02T01:01:41.529Z,534.00
2023-03-02T01:02:41.617Z,532.00
2023-03-02T01:03:41.532Z,533.00
2023-03-02T01:04:41.551Z,536.00
2023-03-02T01:05:41.565Z,537.00
2023-03-02T01:06:41.582Z,538.00
2023-03-02T01:07:41.589Z,536.00
2023-03-02T01:08:41.626Z,536.00
2023-03-02T01:09:41.663Z,536.00
2023-03-02T01:10:41.694Z,533.00
2023-03-02T01:11:41.698Z,532.00
2023-03-02T01:12:41.767Z,531.00
2023-03-02T01:13:41.768Z,530.00
2023-03-02T01:14:42.615Z,527.00
2023-03-02T01:15:41.756Z,523.00
2023-03-02T01:16:41.777Z,525.00
2023-03-02T01:17:41.666Z,524.00
2023-03-02T01:18:41.645Z,526.00
2023-03-02T01:19:41.605Z,526.00
2023-03-02T01:20:41.564Z,527.00
2023-03-02T01:21:41.524Z,527.00
2023-03-02T01:22:41.526Z,528.00
2023-03-02T01:24:41.580Z,529.00
2023-03-02T01:25:41.595Z,529.00
2023-03-02T01:26:41.648Z,531.00
2023-03-02T01:27:41.666Z,529.00
2023-03-02T01:28:41.668Z,530.00
2023-03-02T01:29:41.684Z,527.00
2023-03-02T01:30:41.738Z,529.00
2023-03-02T01:31:41.810Z,530.00
2023-03-02T01:32:41.763Z,531.00
2023-03-02T01:33:41.787Z,531.00
2023-03-02T01:34:41.826Z,532.00
2023-03-02T01:35:41.888Z,533.00
2023-03-02T01:36:41.897Z,532.00
2023-03-02T01:37:41.904Z,531.00
2023-03-02T01:38:41.968Z,531.00
2023-03-02T01:39:41.967Z,533.00
2023-03-02T01:40:42.022Z,532.00
2023-03-02T01:41:42.072Z,528.00
2023-03-02T01:42:42.047Z,526.00
2023-03-02T01:43:42.080Z,524.00
2023-03-02T01:44:42.134Z,524.00
2023-03-02T01:45:42.162Z,523.00
2023-03-02T01:46:42.184Z,521.00
2023-03-02T01:47:42.189Z,522.00
2023-03-02T01:48:42.211Z,526.00
2023-03-02T01:49:42.251Z,524.00
2023-03-02T01:50:42.251Z,523.00
2023-03-02T01:51:42.290Z,523.00
2023-03-02T01:52:42.327Z,520.00
2023-03-02T01:53:42.342Z,521.00
2023-03-02T01:54:42.351Z,524.00
2023-03-02T01:55:42.394Z,523.00
2023-03-02T01:56:42.462Z,522.00
2023-03-02T01:57:42.429Z,522.00
2023-03-02T01:58:42.497Z,522.00
2023-03-02T01:59:42.499Z,521.00
2023-03-02T02:00:42.565Z,519.00
2023-03-02T02:01:42.566Z,518.00
2023-03-02T02:02:42.576Z,519.00
2023-03-02T02:03:42.623Z,519.00
2023-03-02T02:04:42.610Z,518.00
2023-03-02T02:05:42.652Z,518.00
2023-03-02T02:06:42.680Z,520.00
2023-03-02T02:07:42.693Z,521.00
2023-03-02T02:08:42.750Z,522.00
2023-03-02T02:09:42.751Z,524.00
2023-03-02T02:10:42.797Z,525.00
2023-03-02T02:11:42.806Z,526.00
2023-03-02T02:12:42.846Z,527.00
2023-03-02T02:13:42.864Z,530.00
2023-03-02T02:14:42.881Z,528.00
2023-03-02T02:15:42.926Z,526.00
2023-03-02T02:16:42.978Z,525.00
2023-03-02T02:17:42.967Z,523.00
2023-03-02T02:18:42.976Z,521.00
2023-03-02T02:19:42.980Z,521.00
2023-03-02T02:20:43.007Z,519.00
2023-03-02T02:21:43.032Z,517.00
2023-03-02T02:22:43.061Z,518.00
2023-03-02T02:23:43.109Z,519.00
2023-03-02T02:24:43.122Z,520.00
2023-03-02T02:25:43.130Z,520.00
2023-03-02T02:26:43.162Z,520.00
2023-03-02T02:27:43.187Z,518.00
2023-03-02T02:28:43.199Z,517.00
2023-03-02T02:29:43.226Z,518.00
2023-03-02T02:30:43.232Z,520.00
2023-03-02T02:31:43.286Z,521.00
2023-03-02T02:32:43.327Z,518.00
2023-03-02T02:33:43.301Z,517.00
2023-03-02T02:34:43.323Z,517.00
2023-03-02T02:35:43.374Z,515.00
2023-03-02T02:36:43.395Z,517.00
2023-03-02T02:37:43.426Z,519.00
2023-03-02T02:38:43.445Z,520.00
2023-03-02T02:39:43.453Z,520.00
2023-03-02T02:40:43.488Z,519.00
2023-03-02T02:41:43.505Z,520.00
2023-03-02T02:42:43.560Z,523.00
2023-03-02T02:43:43.572Z,521.00
2023-03-02T02:44:43.588Z,521.00
2023-03-02T02:45:43.644Z,519.00
2023-03-02T02:46:43.629Z,518.00
2023-03-02T02:47:43.720Z,517.00
2023-03-02T02:48:43.669Z,519.00
2023-03-02T02:49:43.693Z,518.00
2023-03-02T02:50:43.718Z,520.00
2023-03-02T02:51:43.749Z,519.00
2023-03-02T02:52:43.793Z,517.00
2023-03-02T02:53:43.780Z,514.00
2023-03-02T02:54:43.821Z,516.00
2023-03-02T02:55:43.824Z,517.00
2023-03-02T02:56:43.841Z,518.00
2023-03-02T02:57:43.889Z,519.00
2023-03-02T02:58:43.905Z,520.00
2023-03-02T02:59:43.924Z,520.00
2023-03-02T03:00:43.963Z,522.00
2023-03-02T03:01:44.069Z,521.00
2023-03-02T03:02:43.997Z,519.00
2023-03-02T03:03:44.006Z,517.00
2023-03-02T03:04:44.092Z,515.00
2023-03-02T03:05:44.031Z,514.00
2023-03-02T03:06:44.057Z,514.00
2023-03-02T03:07:44.078Z,516.00
2023-03-02T03:08:44.136Z,513.00
2023-03-02T03:09:44.121Z,511.00
2023-03-02T03:10:44.149Z,513.00
2023-03-02T03:11:44.157Z,513.00
2023-03-02T03:12:44.178Z,514.00
2023-03-02T03:13:44.205Z,514.00
2023-03-02T03:14:44.217Z,513.00
2023-03-02T03:15:44.233Z,513.00
2023-03-02T03:16:44.373Z,514.00
2023-03-02T03:17:44.278Z,514.00
2023-03-02T03:18:44.344Z,510.00
2023-03-02T03:19:44.349Z,511.00
2023-03-02T03:20:44.379Z,511.00
2023-03-02T03:21:44.406Z,511.00
2023-03-02T03:22:44.399Z,513.00
2023-03-02T03:23:44.431Z,510.00
2023-03-02T03:24:44.439Z,509.00
2023-03-02T03:25:44.452Z,509.00
2023-03-02T03:26:44.471Z,509.00
2023-03-02T03:27:44.501Z,511.00
2023-03-02T03:28:44.542Z,512.00
2023-03-02T03:29:44.500Z,512.00
2023-03-02T03:30:44.598Z,512.00
2023-03-02T03:31:44.552Z,511.00
2023-03-02T03:32:44.568Z,511.00
2023-03-02T03:33:44.573Z,512.00
2023-03-02T03:34:44.611Z,511.00
2023-03-02T03:35:44.698Z,509.00
2023-03-02T03:36:44.661Z,506.00
2023-03-02T03:37:44.673Z,505.00
2023-03-02T03:38:44.712Z,505.00
2023-03-02T03:39:44.714Z,504.00
2023-03-02T03:40:44.735Z,506.00
2023-03-02T03:41:44.761Z,505.00
2023-03-02T03:42:44.805Z,504.00
2023-03-02T03:43:44.833Z,505.00
2023-03-02T03:44:44.871Z,505.00
2023-03-02T03:45:44.896Z,504.00
2023-03-02T03:46:44.897Z,505.00
2023-03-02T03:47:44.960Z,504.00
2023-03-02T03:48:44.950Z,504.00
2023-03-02T03:49:45.279Z,505.00
2023-03-02T03:50:45.026Z,505.00
2023-03-02T03:51:45.045Z,505.00
2023-03-02T03:52:45.049Z,503.00
2023-03-02T03:53:45.079Z,498.00
2023-03-02T03:54:45.106Z,503.00
2023-03-02T03:55:45.122Z,503.00
2023-03-02T03:56:45.139Z,501.00
2023-03-02T03:57:45.157Z,501.00
2023-03-02T03:58:45.264Z,498.00
2023-03-02T03:59:45.230Z,500.00
2023-03-02T04:00:45.222Z,502.00
2023-03-02T04:01:45.315Z,501.00
2023-03-02T04:02:45.384Z,499.00
2023-03-02T04:03:45.290Z,498.00
2023-03-02T04:04:45.302Z,498.00
2023-03-02T04:05:45.307Z,499.00
2023-03-02T04:06:45.321Z,499.00
2023-03-02T04:07:45.337Z,499.00
2023-03-02T04:08:45.365Z,498.00
2023-03-02T04:09:45.389Z,496.00
2023-03-02T04:10:45.411Z,496.00
2023-03-02T04:11:45.425Z,497.00
2023-03-02T04:12:45.476Z,499.00
2023-03-02T04:13:45.476Z,497.00
2023-03-02T04:14:45.506Z,496.00
2023-03-02T04:15:47.132Z,494.00
2023-03-02T04:16:45.471Z,495.00
2023-03-02T04:17:45.442Z,493.00
2023-03-02T04:18:45.396Z,491.00
2023-03-02T04:19:45.388Z,493.00
2023-03-02T04:20:45.336Z,498.00
2023-03-02T04:21:45.292Z,496.00
2023-03-02T04:22:45.244Z,496.00
2023-03-02T04:23:45.274Z,496.00
2023-03-02T04:24:45.267Z,494.00
2023-03-02T04:25:45.234Z,496.00
2023-03-02T04:26:45.186Z,495.00
2023-03-02T04:27:45.153Z,494.00
2023-03-02T04:28:45.127Z,495.00
2023-03-02T04:29:45.086Z,494.00
2023-03-02T04:30:45.075Z,493.00
2023-03-02T04:31:45.017Z,493.00
2023-03-02T04:32:44.949Z,493.00
2023-03-02T04:33:44.916Z,492.00
2023-03-02T04:34:44.901Z,492.00
2023-03-02T04:35:44.915Z,493.00
2023-03-02T04:36:44.800Z,492.00
2023-03-02T04:37:44.776Z,492.00
2023-03-02T04:38:44.747Z,491.00
2023-03-02T04:39:44.732Z,490.00
2023-03-02T04:40:44.676Z,490.00
2023-03-02T04:41:44.600Z,490.00
2023-03-02T04:42:44.614Z,489.00
2023-03-02T04:43:44.544Z,491.00
2023-03-02T04:44:44.545Z,492.00
2023-03-02T04:45:44.474Z,494.00
2023-03-02T04:46:44.997Z,494.00
2023-03-02T04:47:44.373Z,494.00
2023-03-02T04:48:44.369Z,492.00
2023-03-02T04:49:44.324Z,489.00
2023-03-02T04:50:44.293Z,493.00
2023-03-02T04:51:44.224Z,491.00
2023-03-02T04:52:44.186Z,490.00
2023-03-02T04:53:44.168Z,486.00
2023-03-02T04:54:44.106Z,487.00
2023-03-02T04:55:44.081Z,488.00
2023-03-02T04:56:44.024Z,491.00
2023-03-02T04:57:44.010Z,489.00
2023-03-02T04:58:43.927Z,487.00
2023-03-02T04:59:43.925Z,488.00
2023-03-02T05:00:43.877Z,489.00
2023-03-02T05:01:43.833Z,490.00
2023-03-02T05:02:43.816Z,490.00
2023-03-02T05:03:43.786Z,488.00
2023-03-02T05:04:43.785Z,490.00
2023-03-02T05:05:43.669Z,491.00
2023-03-02T05:06:43.630Z,490.00
2023-03-02T05:07:43.607Z,490.00
2023-03-02T05:08:43.572Z,492.00
2023-03-02T05:09:43.523Z,493.00
2023-03-02T05:10:43.498Z,492.00
2023-03-02T05:11:43.462Z,490.00
2023-03-02T05:12:43.432Z,490.00
2023-03-02T05:13:43.370Z,493.00
2023-03-02T05:14:45.653Z,494.00
2023-03-02T05:15:43.441Z,494.00
2023-03-02T05:16:43.352Z,493.00
2023-03-02T05:17:43.231Z,493.00
2023-03-02T05:18:43.177Z,491.00
2023-03-02T05:19:43.123Z,492.00
2023-03-02T05:20:43.181Z,489.00
2023-03-02T05:21:43.187Z,490.00
2023-03-02T05:22:43.192Z,490.00
2023-03-02T05:23:43.302Z,488.00
2023-03-02T05:24:43.202Z,488.00
2023-03-02T05:25:43.262Z,487.00
2023-03-02T05:26:43.274Z,486.00
2023-03-02T05:27:43.255Z,488.00
2023-03-02T05:28:43.282Z,486.00
2023-03-02T05:29:43.306Z,489.00
2023-03-02T05:30:43.355Z,488.00
2023-03-02T05:31:43.447Z,490.00
2023-03-02T05:32:43.378Z,487.00
2023-03-02T05:33:43.403Z,487.00
2023-03-02T05:34:43.430Z,484.00
2023-03-02T05:35:43.505Z,484.00
2023-03-02T05:36:43.477Z,483.00
2023-03-02T05:37:43.482Z,483.00
2023-03-02T05:38:43.532Z,482.00
2023-03-02T06:19:42.903Z,481.00
2023-03-02T06:20:42.876Z,481.00
2023-03-02T06:21:42.836Z,482.00
2023-03-02T06:22:42.810Z,484.00
2023-03-02T06:23:42.783Z,481.00
2023-03-02T06:24:42.753Z,479.00
2023-03-02T06:25:42.748Z,479.00
2023-03-02T06:26:42.665Z,480.00
2023-03-02T06:27:42.673Z,482.00
2023-03-02T06:28:52.098Z,483.00
2023-03-02T06:29:43.566Z,481.00
2023-03-02T06:30:42.675Z,479.00
2023-03-02T06:31:42.559Z,479.00
2023-03-02T06:32:42.596Z,479.00
2023-03-02T06:33:42.945Z,484.00
2023-03-02T06:34:42.385Z,534.00
2023-03-02T06:35:42.510Z,547.00
2023-03-02T07:11:51.833Z,896.00
2023-03-02T07:13:16.624Z,893.00
2023-03-02T07:14:50.944Z,906.00
2023-03-02T07:15:48.828Z,930.00
2023-03-02T07:22:45.571Z,978.00
2023-03-02T09:17:37.227Z,1615.00
2023-03-02T09:18:37.281Z,1627.00
2023-03-02T09:19:37.137Z,1632.00
2023-03-02T09:20:37.455Z,1639.00
2023-03-02T09:21:36.982Z,1646.00
2023-03-02T09:22:36.954Z,1641.00
2023-03-02T09:23:36.893Z,1627.00
2023-03-02T09:24:36.969Z,1609.00
2023-03-02T09:25:36.804Z,1597.00
2023-03-02T09:26:36.777Z,1590.00
2023-03-02T09:27:36.704Z,1578.00
2023-03-02T09:28:36.669Z,1586.00
2023-03-02T09:29:36.613Z,1583.00
2023-03-02T09:30:37.252Z,1586.00
2023-03-02T09:31:37.126Z,1569.00
2023-03-02T09:32:38.450Z,1545.00
2023-03-02T09:33:36.399Z,1520.00
2023-03-02T09:34:36.343Z,1492.00
2023-03-02T09:35:36.324Z,1391.00
2023-03-02T09:36:36.259Z,1337.00
2023-03-02T09:37:36.569Z,1332.00
2023-03-02T09:38:36.849Z,1279.00
2023-03-02T09:39:36.103Z,1268.00
2023-03-02T09:40:36.078Z,1252.00
2023-03-02T09:41:36.131Z,1201.00
2023-03-02T09:42:43.960Z,1183.00
2023-03-02T09:43:36.881Z,1161.00
2023-03-02T09:44:35.861Z,1105.00
2023-03-02T09:45:35.886Z,1095.00
2023-03-02T09:46:35.774Z,1028.00
2023-03-02T09:47:36.231Z,1032.00
2023-03-02T09:48:35.664Z,1045.00
2023-03-02T09:49:35.984Z,1120.00
2023-03-02T09:50:35.591Z,1123.00
2023-03-02T09:51:35.539Z,1121.00
2023-03-02T09:52:35.470Z,1172.00
2023-03-02T09:53:35.457Z,1181.00
2023-03-02T09:54:35.372Z,1169.00
2023-03-02T09:55:35.344Z,1146.00
2023-03-02T09:56:35.435Z,1117.00
2023-03-02T09:57:35.210Z,1096.00
2023-03-02T09:58:35.145Z,1084.00
2023-03-02T09:59:35.085Z,1044.00
2023-03-02T10:00:35.031Z,1026.00
2023-03-02T10:01:35.006Z,1017.00
2023-03-02T10:02:34.939Z,1011.00
2023-03-02T10:03:35.035Z,1001.00
2023-03-02T10:04:34.879Z,990.00
2023-03-02T10:05:34.758Z,962.00
2023-03-02T10:06:34.934Z,964.00
2023-03-02T10:07:34.685Z,958.00
2023-03-02T10:08:34.614Z,954.00
2023-03-02T10:09:34.544Z,946.00
2023-03-02T10:10:34.487Z,942.00
2023-03-02T10:11:34.450Z,936.00
2023-03-02T10:12:34.385Z,932.00
2023-03-02T10:13:34.345Z,925.00
2023-03-02T10:14:34.350Z,920.00
2023-03-02T10:15:34.254Z,914.00
2023-03-02T10:16:34.776Z,909.00
2023-03-02T10:17:34.159Z,906.00
2023-03-02T10:18:34.222Z,901.00
2023-03-02T10:19:34.037Z,895.00
2023-03-02T10:20:34.338Z,892.00
2023-03-02T10:21:33.983Z,883.00
2023-03-02T10:22:33.892Z,879.00
2023-03-02T10:23:33.897Z,877.00
2023-03-02T10:24:33.768Z,875.00
2023-03-02T10:25:33.704Z,871.00
2023-03-02T10:26:34.035Z,865.00
2023-03-02T10:27:33.683Z,855.00
2023-03-02T10:28:33.515Z,850.00
2023-03-02T10:29:33.509Z,846.00
2023-03-02T10:30:33.432Z,848.00
2023-03-02T10:31:33.489Z,842.00
2023-03-02T10:32:33.378Z,844.00
2023-03-02T10:33:33.274Z,843.00
2023-03-02T10:34:33.200Z,843.00
2023-03-02T10:35:33.324Z,842.00
2023-03-02T10:36:33.714Z,837.00
2023-03-02T10:37:33.093Z,836.00
2023-03-02T10:38:33.015Z,834.00
2023-03-02T10:39:32.974Z,835.00
2023-03-02T10:40:32.974Z,836.00
2023-03-02T10:41:32.881Z,946.00
2023-03-02T10:42:33.010Z,980.00
2023-03-02T10:43:32.919Z,984.00
2023-03-02T10:44:32.750Z,992.00
2023-03-02T10:45:33.270Z,1013.00
2023-03-02T10:46:32.983Z,1032.00
2023-03-02T10:47:32.991Z,1067.00
2023-03-02T10:48:32.549Z,1083.00
2023-03-02T10:49:32.553Z,1104.00
2023-03-02T10:50:32.454Z,1128.00
2023-03-02T10:51:32.422Z,1152.00
2023-03-02T10:52:32.467Z,1167.00
2023-03-02T10:53:32.331Z,1176.00
2023-03-02T10:54:32.289Z,1179.00
2023-03-02T10:55:32.899Z,1188.00
2023-03-02T10:56:32.555Z,1203.00
2023-03-02T10:57:32.160Z,1210.00
2023-03-02T10:58:32.192Z,1218.00
2023-03-02T10:59:32.085Z,1233.00
2023-03-02T11:00:31.982Z,1246.00
2023-03-02T11:01:31.982Z,1267.00
2023-03-02T11:02:31.927Z,1285.00
2023-03-02T11:03:31.859Z,1291.00
2023-03-02T11:04:31.957Z,1301.00
2023-03-02T11:05:31.749Z,1304.00
2023-03-02T11:06:32.069Z,1313.00
2023-03-02T11:07:31.720Z,1322.00
2023-03-02T11:08:31.589Z,1335.00
2023-03-02T11:09:31.557Z,1344.00
2023-03-02T11:10:31.531Z,1351.00
2023-03-02T11:11:32.105Z,1352.00
2023-03-02T11:12:31.690Z,1357.00
2023-03-02T11:13:31.365Z,1366.00
2023-03-02T11:14:31.318Z,1376.00
2023-03-02T11:15:31.249Z,1388.00
2023-03-02T11:16:33.161Z,1393.00
2023-03-02T11:17:32.059Z,1396.00
2023-03-02T11:18:31.121Z,1400.00
2023-03-02T11:19:31.162Z,1406.00
2023-03-02T11:20:31.325Z,1411.00
2023-03-02T11:21:33.523Z,1416.00
2023-03-02T11:22:31.299Z,1413.00
2023-03-02T11:23:30.826Z,1426.00
2023-03-02T11:24:30.937Z,1428.00
2023-03-02T11:25:31.382Z,1428.00
2023-03-02T11:26:31.377Z,1423.00
2023-03-02T11:27:37.707Z,1428.00
2023-03-02T11:28:32.722Z,1426.00
2023-03-02T11:29:30.530Z,1423.00
2023-03-02T11:30:34.411Z,1428.00
2023-03-02T11:31:30.582Z,1425.00
2023-03-02T11:32:30.594Z,1420.00
2023-03-02T11:33:31.357Z,1253.00
2023-03-02T11:34:30.785Z,1015.00
2023-03-02T11:35:30.365Z,1227.00
2023-03-02T11:36:30.318Z,1227.00
2023-03-02T11:37:30.203Z,1210.00
2023-03-02T11:38:30.135Z,1202.00
2023-03-02T11:39:30.086Z,1195.00
2023-03-02T11:40:30.041Z,1185.00
2023-03-02T11:41:30.253Z,1204.00
2023-03-02T11:42:30.062Z,1233.00
2023-03-02T11:43:29.969Z,1306.00
2023-03-02T11:44:29.814Z,1302.00
2023-03-02T11:45:29.776Z,1298.00
2023-03-02T11:46:30.323Z,1287.00
2023-03-02T11:47:29.680Z,1298.00
2023-03-02T11:48:30.846Z,1348.00
2023-03-02T11:49:30.007Z,1343.00
2023-03-02T11:50:29.850Z,1299.00
2023-03-02T11:51:29.685Z,1306.00
2023-03-02T11:52:30.934Z,1331.00
2023-03-02T11:53:29.404Z,1348.00
2023-03-02T11:54:29.318Z,1363.00
2023-03-02T11:55:29.231Z,1381.00
2023-03-02T11:56:29.191Z,1388.00
2023-03-02T11:57:29.149Z,1430.00
2023-03-02T11:58:29.101Z,1415.00
2023-03-02T11:59:29.043Z,1417.00
2023-03-02T12:00:29.084Z,1418.00
2023-03-02T12:01:29.126Z,1426.00
2023-03-02T12:02:29.087Z,1434.00
2023-03-02T12:03:29.177Z,1452.00
2023-03-02T12:04:29.314Z,1465.00
2023-03-02T12:05:30.505Z,1506.00
2023-03-02T12:06:28.877Z,1524.00
2023-03-02T12:07:29.198Z,1521.00
2023-03-02T12:08:29.333Z,1528.00
2023-03-02T12:09:37.137Z,1569.00
2023-03-02T12:12:31.447Z,1553.00
2023-03-02T12:13:29.941Z,1499.00
2023-03-02T12:14:30.324Z,1492.00
2023-03-02T12:15:28.727Z,1466.00
2023-03-02T12:17:28.604Z,1395.00
2023-03-02T12:18:29.114Z,1283.00
2023-03-02T12:19:29.343Z,1284.00
2023-03-02T12:20:32.977Z,1276.00
2023-03-02T12:21:28.351Z,1188.00
2023-03-02T12:22:28.668Z,1172.00
2023-03-02T12:23:28.670Z,1137.00
2023-03-02T12:24:27.911Z,1089.00
2023-03-02T12:25:27.646Z,1055.00
2023-03-02T12:26:27.643Z,1053.00
2023-03-02T12:27:27.606Z,1059.00
2023-03-02T12:28:27.754Z,1086.00
2023-03-02T12:29:27.537Z,1202.00
2023-03-02T12:30:27.468Z,1198.00
2023-03-02T12:31:27.529Z,1113.00
2023-03-02T12:32:27.420Z,1104.00
2023-03-02T12:33:27.419Z,1074.00
2023-03-02T12:34:27.264Z,1069.00
2023-03-02T12:35:27.238Z,1066.00
2023-03-02T12:36:27.166Z,1066.00
2023-03-02T12:37:27.142Z,1070.00
2023-03-02T12:38:27.097Z,1067.00
2023-03-02T12:39:27.045Z,1059.00
2023-03-02T12:40:26.955Z,1046.00
2023-03-02T12:41:26.913Z,1040.00
2023-03-02T12:42:26.839Z,1042.00
2023-03-02T12:43:26.795Z,1036.00
2023-03-02T12:44:26.820Z,1024.00
2023-03-02T12:45:26.697Z,1018.00
2023-03-02T12:46:26.648Z,1015.00
2023-03-02T12:47:27.112Z,1011.00
2023-03-02T12:48:26.678Z,1003.00
2023-03-02T12:49:26.502Z,1005.00
2023-03-02T12:50:26.434Z,997.00
2023-03-02T12:51:26.506Z,995.00
2023-03-02T12:52:26.448Z,991.00
2023-03-02T12:53:26.319Z,988.00
2023-03-02T12:54:26.247Z,981.00
2023-03-02T12:55:26.166Z,972.00
2023-03-02T12:56:26.150Z,961.00
2023-03-02T12:57:26.080Z,936.00
2023-03-02T12:58:26.017Z,943.00
2023-03-02T12:59:25.981Z,950.00
2023-03-02T13:00:25.950Z,949.00
2023-03-02T13:01:25.908Z,940.00
2023-03-02T13:02:25.843Z,928.00
2023-03-02T13:03:25.787Z,926.00
2023-03-02T13:04:25.793Z,926.00
2023-03-02T13:05:25.686Z,921.00
2023-03-02T13:06:25.624Z,920.00
2023-03-02T13:07:25.617Z,919.00
2023-03-02T13:08:25.568Z,919.00
2023-03-02T13:09:25.540Z,919.00
2023-03-02T13:10:25.494Z,918.00
2023-03-02T13:11:25.381Z,918.00
2023-03-02T13:12:25.349Z,911.00
2023-03-02T13:13:25.301Z,905.00
2023-03-02T13:14:25.244Z,899.00
2023-03-02T13:15:25.194Z,892.00
2023-03-02T13:16:25.189Z,885.00
2023-03-02T13:17:25.114Z,880.00
2023-03-02T13:18:25.004Z,875.00
2023-03-02T13:19:24.963Z,871.00
2023-03-02T13:20:24.917Z,864.00
2023-03-02T13:21:24.857Z,858.00
2023-03-02T13:22:24.832Z,857.00
2023-03-02T13:23:25.450Z,857.00
2023-03-02T13:24:24.702Z,854.00
2023-03-02T13:25:24.652Z,851.00
2023-03-02T13:26:24.596Z,853.00
2023-03-02T13:27:24.688Z,850.00
2023-03-02T13:28:24.522Z,846.00
2023-03-02T13:29:24.475Z,842.00
2023-03-02T13:30:24.465Z,839.00
2023-03-02T13:31:24.441Z,835.00
2023-03-02T13:32:24.390Z,831.00
2023-03-02T13:33:24.300Z,830.00
2023-03-02T13:34:24.219Z,826.00
2023-03-02T13:35:26.379Z,823.00
2023-03-02T13:36:24.095Z,818.00
2023-03-02T13:37:24.030Z,816.00
2023-03-02T13:38:24.115Z,813.00
2023-03-02T13:39:23.965Z,809.00
2023-03-02T13:40:23.918Z,804.00
2023-03-02T13:41:23.887Z,801.00
2023-03-02T13:42:23.894Z,802.00
2023-03-02T13:43:23.780Z,805.00
2023-03-02T13:44:23.808Z,807.00
2023-03-02T13:45:23.803Z,808.00
2023-03-02T13:46:24.030Z,808.00
2023-03-02T13:47:23.818Z,810.00
2023-03-02T13:48:23.814Z,812.00
2023-03-02T13:49:23.775Z,812.00
2023-03-02T13:50:23.883Z,810.00
2023-03-02T13:51:23.810Z,807.00
2023-03-02T13:52:23.842Z,810.00
2023-03-02T13:53:23.784Z,813.00
2023-03-02T13:54:23.912Z,814.00
2023-03-02T13:55:23.848Z,813.00
2023-03-02T13:56:23.924Z,814.00
2023-03-02T13:57:23.830Z,813.00
2023-03-02T13:58:23.905Z,814.00
2023-03-02T13:59:23.844Z,810.00
2023-03-02T14:00:23.891Z,807.00
2023-03-02T14:01:23.886Z,807.00
2023-03-02T14:02:23.861Z,806.00
2023-03-02T14:03:23.860Z,806.00
2023-03-02T14:04:24.035Z,806.00
2023-03-02T14:05:24.011Z,805.00
2023-03-02T14:06:24.062Z,804.00
2023-03-02T14:07:23.929Z,804.00
2023-03-02T14:08:24.453Z,804.00
2023-03-02T14:09:23.844Z,803.00
2023-03-02T14:10:23.760Z,805.00
2023-03-02T14:11:23.740Z,800.00
2023-03-02T14:12:23.676Z,794.00
2023-03-02T14:13:23.586Z,792.00
2023-03-02T14:14:23.527Z,788.00
2023-03-02T14:15:23.498Z,790.00
2023-03-02T14:16:23.516Z,790.00
2023-03-02T14:17:23.477Z,787.00
2023-03-02T14:18:24.466Z,789.00
2023-03-02T14:19:23.427Z,787.00
2023-03-02T14:20:23.341Z,785.00
2023-03-02T14:21:23.436Z,785.00
2023-03-02T14:22:23.239Z,784.00
2023-03-02T14:23:23.251Z,787.00
2023-03-02T14:24:23.130Z,787.00
2023-03-02T14:25:23.126Z,789.00
2023-03-02T14:26:23.142Z,788.00
2023-03-02T14:27:23.117Z,787.00
2023-03-02T14:28:23.080Z,788.00
2023-03-02T14:29:23.206Z,786.00
2023-03-02T14:30:23.111Z,784.00
2023-03-02T14:31:23.153Z,782.00
2023-03-02T14:32:23.143Z,780.00
2023-03-02T14:33:22.982Z,779.00
2023-03-02T14:34:22.903Z,776.00
2023-03-02T14:35:22.826Z,777.00
2023-03-02T14:36:22.788Z,777.00
2023-03-02T14:37:22.743Z,772.00
2023-03-02T14:38:22.708Z,771.00
2023-03-02T14:39:22.609Z,771.00
2023-03-02T14:40:22.588Z,770.00
2023-03-02T14:41:22.543Z,768.00
2023-03-02T14:42:22.510Z,768.00
2023-03-02T14:43:22.417Z,770.00
2023-03-02T15:11:22.465Z,740.00
2023-03-02T18:28:12.423Z,597.00
2023-03-02T18:29:12.381Z,597.00
2023-03-02T21:18:05.470Z,616.00
2023-03-02T21:19:05.424Z,615.00
2023-03-02T21:20:05.384Z,614.00
2023-03-02T21:21:05.352Z,617.00
2023-03-02T21:22:05.315Z,617.00
2023-03-02T21:23:05.305Z,619.00
2023-03-02T21:24:05.241Z,618.00
2023-03-02T21:25:05.190Z,618.00
2023-03-02T21:26:05.142Z,617.00
2023-03-02T21:27:05.119Z,618.00
2023-03-02T21:28:05.078Z,620.00
2023-03-02T21:29:05.034Z,619.00
2023-03-02T21:30:04.980Z,619.00
2023-03-02T21:31:05.047Z,617.00
2023-03-02T21:32:04.929Z,617.00
2023-03-02T21:33:04.878Z,617.00
2023-03-02T21:34:04.796Z,615.00
2023-03-02T21:35:04.752Z,614.00
2023-03-02T21:36:04.711Z,613.00
2023-03-02T21:37:04.676Z,613.00
2023-03-02T21:38:04.924Z,611.00
2023-03-02T21:39:04.589Z,612.00
2023-03-02T21:40:04.532Z,610.00
2023-03-02T21:41:04.499Z,608.00
2023-03-02T21:42:04.446Z,606.00
2023-03-02T21:43:04.391Z,607.00
2023-03-02T21:44:04.354Z,607.00
2023-03-02T21:45:04.316Z,609.00
2023-03-02T21:46:04.307Z,609.00
2023-03-02T21:47:04.207Z,609.00
2023-03-02T21:48:04.172Z,611.00
2023-03-02T21:49:04.129Z,611.00
2023-03-02T21:50:04.086Z,609.00
2023-03-02T21:51:04.030Z,609.00
2023-03-02T21:52:03.993Z,611.00
2023-03-02T21:53:03.960Z,613.00
2023-03-02T21:54:03.908Z,613.00
2023-03-02T21:55:03.870Z,614.00
2023-03-02T21:56:03.817Z,614.00
2023-03-02T21:57:03.783Z,613.00
2023-03-02T21:58:03.747Z,614.00
2023-03-02T21:59:03.695Z,611.00
2023-03-02T22:00:03.662Z,608.00
2023-03-02T22:01:03.623Z,607.00
2023-03-02T22:02:03.631Z,605.00
2023-03-02T22:03:03.567Z,606.00
2023-03-02T22:04:03.508Z,605.00
2023-03-02T22:05:03.508Z,607.00
2023-03-02T22:06:03.431Z,606.00
2023-03-02T22:07:03.383Z,609.00
2023-03-02T22:08:03.364Z,608.00
2023-03-02T22:09:03.337Z,607.00
2023-03-02T22:10:03.298Z,609.00
2023-03-02T22:11:03.228Z,609.00
2023-03-02T22:12:03.207Z,605.00
2023-03-02T22:13:03.164Z,603.00
2023-03-02T22:14:03.129Z,603.00
2023-03-02T22:15:03.092Z,604.00
2023-03-02T22:16:03.120Z,606.00
2023-03-02T22:17:02.997Z,608.00
2023-03-02T22:18:02.975Z,608.00
2023-03-02T22:19:02.942Z,608.00
2023-03-02T22:20:02.881Z,609.00
2023-03-02T22:21:02.842Z,607.00
2023-03-02T22:22:02.807Z,608.00
2023-03-02T22:23:02.768Z,610.00
2023-03-02T22:24:02.730Z,610.00
2023-03-02T22:25:02.682Z,609.00
2023-03-02T22:26:02.613Z,607.00
2023-03-02T22:27:02.590Z,608.00
2023-03-02T22:28:02.566Z,606.00
2023-03-02T22:29:02.513Z,605.00
2023-03-02T22:30:02.475Z,603.00
2023-03-02T22:31:02.471Z,604.00
2023-03-02T22:32:02.460Z,608.00
